sensor_id;sensor_type;location;lat;lon;timestamp;pressure;altitude;pressure_sealevel;temperature;humidity
4590;BME280;2307;48.448;9.216;2023-04-08T00:01:12;95591.25;;;7.36;100.00
4590;BME280;2307;48.448;9.216;2023-04-08T00:03:38;95586.78;;;7.43;100.00
4590;BME280;2307;48.448;9.216;2023-04-08T00:06:05;95583.13;;;7.44;100.00
4590;BME280;2307;48.448;9.216;2023-04-08T00:08:32;95591.13;;;7.63;100.00
4590;BME280;2307;48.448;9.216;2023-04-08T00:10:58;95590.22;;;7.75;100.00
4590;BME280;2307;48.448;9.216;2023-04-08T00:13:25;95585.34;;;7.79;100.00
4590;BME280;2307;48.448;9.216;2023-04-08T00:15:53;95592.47;;;7.72;100.00
4590;BME280;2307;48.448;9.216;2023-04-08T00:18:19;95591.41;;;7.79;100.00
4590;BME280;2307;48.448;9.216;2023-04-08T00:20:46;95599.78;;;7.70;100.00
4590;BME280;2307;48.448;9.216;2023-04-08T00:23:12;95590.66;;;7.72;100.00
4590;BME280;2307;48.448;9.216;2023-04-08T00:25:38;95593.25;;;7.79;100.00
4590;BME280;2307;48.448;9.216;2023-04-08T00:28:05;95594.66;;;7.75;100.00
4590;BME280;2307;48.448;9.216;2023-04-08T00:30:31;95594.06;;;7.79;100.00
4590;BME280;2307;48.448;9.216;2023-04-08T00:32:59;95591.81;;;7.83;100.00
4590;BME280;2307;48.448;9.216;2023-04-08T00:35:25;95600.81;;;7.62;100.00
4590;BME280;2307;48.448;9.216;2023-04-08T00:37:52;95596.38;;;7.63;100.00
4590;BME280;2307;48.448;9.216;2023-04-08T00:40:18;95598.38;;;7.67;100.00
4590;BME280;2307;48.448;9.216;2023-04-08T00:42:45;95597.41;;;7.55;100.00
4590;BME280;2307;48.448;9.216;2023-04-08T00:45:11;95596.34;;;7.69;100.00
4590;BME280;2307;48.448;9.216;2023-04-08T00:47:38;95601.81;;;7.61;100.00
4590;BME280;2307;48.448;9.216;2023-04-08T00:50:07;95604.81;;;7.71;100.00
4590;BME280;2307;48.448;9.216;2023-04-08T00:52:34;95601.38;;;7.71;100.00
4590;BME280;2307;48.448;9.216;2023-04-08T00:55:01;95606.50;;;7.59;100.00
4590;BME280;2307;48.448;9.216;2023-04-08T00:57:27;95596.22;;;7.58;100.00
4590;BME280;2307;48.448;9.216;2023-04-08T00:59:54;95603.75;;;7.47;100.00
4590;BME280;2307;48.448;9.216;2023-04-08T01:02:21;95598.66;;;7.53;100.00
4590;BME280;2307;48.448;9.216;2023-04-08T01:04:53;95602.06;;;7.60;100.00
4590;BME280;2307;48.448;9.216;2023-04-08T01:07:24;95594.81;;;7.48;100.00
4590;BME280;2307;48.448;9.216;2023-04-08T01:09:53;95600.16;;;7.35;100.00
4590;BME280;2307;48.448;9.216;2023-04-08T01:12:21;95604.56;;;7.48;100.00
4590;BME280;2307;48.448;9.216;2023-04-08T01:14:51;95603.91;;;7.53;100.00
4590;BME280;2307;48.448;9.216;2023-04-08T01:17:21;95612.22;;;7.49;100.00
4590;BME280;2307;48.448;9.216;2023-04-08T01:19:48;95608.94;;;7.61;100.00
4590;BME280;2307;48.448;9.216;2023-04-08T01:22:22;95607.31;;;7.60;100.00
4590;BME280;2307;48.448;9.216;2023-04-08T01:24:54;95611.13;;;7.64;100.00
4590;BME280;2307;48.448;9.216;2023-04-08T01:27:24;95614.19;;;7.61;100.00
4590;BME280;2307;48.448;9.216;2023-04-08T01:29:51;95614.94;;;7.68;100.00
4590;BME280;2307;48.448;9.216;2023-04-08T01:32:18;95609.72;;;7.61;100.00
4590;BME280;2307;48.448;9.216;2023-04-08T01:34:45;95607.28;;;7.66;100.00
4590;BME280;2307;48.448;9.216;2023-04-08T01:37:12;95611.47;;;7.74;100.00
4590;BME280;2307;48.448;9.216;2023-04-08T01:39:39;95609.63;;;7.74;100.00
4590;BME280;2307;48.448;9.216;2023-04-08T01:42:06;95595.47;;;7.75;100.00
4590;BME280;2307;48.448;9.216;2023-04-08T01:44:34;95608.09;;;7.67;100.00
4590;BME280;2307;48.448;9.216;2023-04-08T01:47:01;95610.88;;;7.72;100.00
4590;BME280;2307;48.448;9.216;2023-04-08T01:49:27;95603.19;;;7.77;100.00
4590;BME280;2307;48.448;9.216;2023-04-08T01:51:55;95606.88;;;7.63;100.00
4590;BME280;2307;48.448;9.216;2023-04-08T01:54:22;95601.81;;;7.61;100.00
4590;BME280;2307;48.448;9.216;2023-04-08T01:56:48;95602.91;;;7.54;100.00
4590;BME280;2307;48.448;9.216;2023-04-08T01:59:16;95603.47;;;7.56;100.00
4590;BME280;2307;48.448;9.216;2023-04-08T02:01:45;95602.50;;;7.50;100.00
4590;BME280;2307;48.448;9.216;2023-04-08T02:04:12;95605.53;;;7.54;100.00
4590;BME280;2307;48.448;9.216;2023-04-08T02:06:39;95603.91;;;7.53;100.00
4590;BME280;2307;48.448;9.216;2023-04-08T02:09:05;95606.19;;;7.36;100.00
4590;BME280;2307;48.448;9.216;2023-04-08T02:11:32;95602.97;;;7.40;100.00
4590;BME280;2307;48.448;9.216;2023-04-08T02:13:58;95605.16;;;7.43;100.00
4590;BME280;2307;48.448;9.216;2023-04-08T02:16:27;95608.59;;;7.44;100.00
4590;BME280;2307;48.448;9.216;2023-04-08T02:18:57;95616.72;;;7.36;100.00
4590;BME280;2307;48.448;9.216;2023-04-08T02:21:26;95611.03;;;7.39;100.00
4590;BME280;2307;48.448;9.216;2023-04-08T02:23:53;95604.19;;;7.38;100.00
4590;BME280;2307;48.448;9.216;2023-04-08T02:26:20;95612.63;;;7.46;100.00
4590;BME280;2307;48.448;9.216;2023-04-08T02:28:47;95607.38;;;7.46;100.00
4590;BME280;2307;48.448;9.216;2023-04-08T02:31:15;95603.53;;;7.42;100.00
4590;BME280;2307;48.448;9.216;2023-04-08T02:33:42;95606.22;;;7.29;100.00
4590;BME280;2307;48.448;9.216;2023-04-08T02:36:11;95609.03;;;7.41;100.00
4590;BME280;2307;48.448;9.216;2023-04-08T02:38:38;95610.25;;;7.38;100.00
4590;BME280;2307;48.448;9.216;2023-04-08T02:41:04;95611.09;;;7.32;100.00
4590;BME280;2307;48.448;9.216;2023-04-08T02:43:31;95612.25;;;7.36;100.00
4590;BME280;2307;48.448;9.216;2023-04-08T02:45:57;95612.66;;;7.40;100.00
4590;BME280;2307;48.448;9.216;2023-04-08T02:48:27;95614.47;;;7.39;100.00
4590;BME280;2307;48.448;9.216;2023-04-08T02:50:53;95612.25;;;7.36;100.00
4590;BME280;2307;48.448;9.216;2023-04-08T02:53:22;95614.91;;;7.36;100.00
4590;BME280;2307;48.448;9.216;2023-04-08T02:55:49;95614.91;;;7.36;100.00
4590;BME280;2307;48.448;9.216;2023-04-08T02:58:15;95619.16;;;7.37;100.00
4590;BME280;2307;48.448;9.216;2023-04-08T03:00:42;95621.41;;;7.27;100.00
4590;BME280;2307;48.448;9.216;2023-04-08T03:03:08;95613.94;;;7.24;100.00
4590;BME280;2307;48.448;9.216;2023-04-08T03:05:35;95623.66;;;7.17;100.00
4590;BME280;2307;48.448;9.216;2023-04-08T03:08:01;95622.09;;;7.10;100.00
4590;BME280;2307;48.448;9.216;2023-04-08T03:10:29;95620.06;;;7.12;100.00
4590;BME280;2307;48.448;9.216;2023-04-08T03:12:55;95616.03;;;7.09;100.00
4590;BME280;2307;48.448;9.216;2023-04-08T03:15:22;95617.97;;;7.27;100.00
4590;BME280;2307;48.448;9.216;2023-04-08T03:17:48;95619.38;;;7.29;100.00
4590;BME280;2307;48.448;9.216;2023-04-08T03:20:15;95619.16;;;7.31;100.00
4590;BME280;2307;48.448;9.216;2023-04-08T03:22:41;95620.28;;;7.10;100.00
4590;BME280;2307;48.448;9.216;2023-04-08T03:25:08;95617.22;;;7.13;100.00
4590;BME280;2307;48.448;9.216;2023-04-08T03:27:35;95620.03;;;7.18;100.00
4590;BME280;2307;48.448;9.216;2023-04-08T03:30:02;95624.44;;;7.24;100.00
4590;BME280;2307;48.448;9.216;2023-04-08T03:32:28;95622.81;;;7.23;100.00
4590;BME280;2307;48.448;9.216;2023-04-08T03:34:55;95619.59;;;7.21;100.00
4590;BME280;2307;48.448;9.216;2023-04-08T03:37:21;95630.13;;;7.21;100.00
4590;BME280;2307;48.448;9.216;2023-04-08T03:39:48;95623.84;;;7.29;100.00
4590;BME280;2307;48.448;9.216;2023-04-08T03:42:14;95626.03;;;7.32;100.00
4590;BME280;2307;48.448;9.216;2023-04-08T03:44:42;95631.88;;;7.34;100.00
4590;BME280;2307;48.448;9.216;2023-04-08T03:47:08;95632.88;;;7.39;100.00
4590;BME280;2307;48.448;9.216;2023-04-08T03:49:34;95632.91;;;7.26;100.00
4590;BME280;2307;48.448;9.216;2023-04-08T03:52:01;95623.63;;;7.30;100.00
4590;BME280;2307;48.448;9.216;2023-04-08T03:54:27;95630.84;;;7.41;100.00
4590;BME280;2307;48.448;9.216;2023-04-08T03:56:54;95632.44;;;7.42;100.00
4590;BME280;2307;48.448;9.216;2023-04-08T03:59:20;95631.69;;;7.35;100.00
4590;BME280;2307;48.448;9.216;2023-04-08T04:01:48;95632.44;;;7.42;100.00
4590;BME280;2307;48.448;9.216;2023-04-08T04:04:15;95623.59;;;7.37;100.00
4590;BME280;2307;48.448;9.216;2023-04-08T04:06:41;95621.97;;;7.36;100.00
4590;BME280;2307;48.448;9.216;2023-04-08T04:09:08;95628.25;;;7.35;100.00
4590;BME280;2307;48.448;9.216;2023-04-08T04:11:35;95621.34;;;7.40;100.00
4590;BME280;2307;48.448;9.216;2023-04-08T04:14:01;95627.63;;;7.33;100.00
4590;BME280;2307;48.448;9.216;2023-04-08T04:16:28;95632.66;;;7.41;100.00
4590;BME280;2307;48.448;9.216;2023-04-08T04:18:56;95632.06;;;7.39;100.00
4590;BME280;2307;48.448;9.216;2023-04-08T04:21:22;95632.31;;;7.31;100.00
4590;BME280;2307;48.448;9.216;2023-04-08T04:23:48;95633.50;;;7.35;100.00
4590;BME280;2307;48.448;9.216;2023-04-08T04:26:15;95639.59;;;7.29;100.00
4590;BME280;2307;48.448;9.216;2023-04-08T04:28:41;95626.25;;;7.30;100.00
4590;BME280;2307;48.448;9.216;2023-04-08T04:31:08;95636.34;;;7.33;100.00
4590;BME280;2307;48.448;9.216;2023-04-08T04:33:42;95638.13;;;7.39;100.00
4590;BME280;2307;48.448;9.216;2023-04-08T04:36:10;95635.31;;;7.34;100.00
4590;BME280;2307;48.448;9.216;2023-04-08T04:38:36;95639.38;;;7.30;100.00
4590;BME280;2307;48.448;9.216;2023-04-08T04:41:03;95638.78;;;7.28;100.00
4590;BME280;2307;48.448;9.216;2023-04-08T04:43:29;95636.59;;;7.25;100.00
4590;BME280;2307;48.448;9.216;2023-04-08T04:45:56;95640.66;;;7.15;100.00
4590;BME280;2307;48.448;9.216;2023-04-08T04:48:22;95640.44;;;7.16;100.00
4590;BME280;2307;48.448;9.216;2023-04-08T04:50:53;95649.53;;;7.14;100.00
4590;BME280;2307;48.448;9.216;2023-04-08T04:53:21;95651.16;;;7.08;100.00
4590;BME280;2307;48.448;9.216;2023-04-08T04:55:48;95650.78;;;7.05;100.00
4590;BME280;2307;48.448;9.216;2023-04-08T04:58:15;95646.34;;;7.05;100.00
4590;BME280;2307;48.448;9.216;2023-04-08T05:00:41;95650.75;;;7.11;100.00
4590;BME280;2307;48.448;9.216;2023-04-08T05:03:07;95643.50;;;7.13;100.00
4590;BME280;2307;48.448;9.216;2023-04-08T05:05:34;95648.75;;;7.13;100.00
4590;BME280;2307;48.448;9.216;2023-04-08T05:08:00;95649.34;;;7.15;100.00
4590;BME280;2307;48.448;9.216;2023-04-08T05:10:28;95646.91;;;7.07;100.00
4590;BME280;2307;48.448;9.216;2023-04-08T05:12:55;95650.56;;;7.13;100.00
4590;BME280;2307;48.448;9.216;2023-04-08T05:15:21;95652.56;;;7.11;100.00
4590;BME280;2307;48.448;9.216;2023-04-08T05:17:47;95656.25;;;6.97;100.00
4590;BME280;2307;48.448;9.216;2023-04-08T05:20:14;95655.44;;;7.03;100.00
4590;BME280;2307;48.448;9.216;2023-04-08T05:22:40;95656.44;;;7.08;100.00
4590;BME280;2307;48.448;9.216;2023-04-08T05:25:09;95662.88;;;7.12;100.00
4590;BME280;2307;48.448;9.216;2023-04-08T05:27:37;95664.31;;;7.08;100.00
4590;BME280;2307;48.448;9.216;2023-04-08T05:30:05;95661.47;;;7.16;100.00
4590;BME280;2307;48.448;9.216;2023-04-08T05:32:32;95662.47;;;7.15;100.00
4590;BME280;2307;48.448;9.216;2023-04-08T05:35:00;95665.50;;;7.19;100.00
4590;BME280;2307;48.448;9.216;2023-04-08T05:37:27;95663.44;;;7.27;100.00
4590;BME280;2307;48.448;9.216;2023-04-08T05:39:53;95669.28;;;7.29;100.00
4590;BME280;2307;48.448;9.216;2023-04-08T05:42:20;95669.50;;;7.28;100.00
4590;BME280;2307;48.448;9.216;2023-04-08T05:44:47;95669.25;;;7.36;100.00
4590;BME280;2307;48.448;9.216;2023-04-08T05:47:14;95673.13;;;7.33;100.00
4590;BME280;2307;48.448;9.216;2023-04-08T05:49:40;95675.28;;;7.49;100.00
4590;BME280;2307;48.448;9.216;2023-04-08T05:52:25;95672.06;;;7.47;100.00
4590;BME280;2307;48.448;9.216;2023-04-08T05:54:51;95681.19;;;7.38;100.00
4590;BME280;2307;48.448;9.216;2023-04-08T05:57:18;95683.94;;;7.57;100.00
4590;BME280;2307;48.448;9.216;2023-04-08T05:59:44;95684.16;;;7.55;100.00
4590;BME280;2307;48.448;9.216;2023-04-08T06:02:12;95688.94;;;7.71;100.00
4590;BME280;2307;48.448;9.216;2023-04-08T06:04:38;95686.53;;;7.70;100.00
4590;BME280;2307;48.448;9.216;2023-04-08T06:07:05;95691.38;;;7.73;100.00
4590;BME280;2307;48.448;9.216;2023-04-08T06:09:33;95695.59;;;7.74;100.00
4590;BME280;2307;48.448;9.216;2023-04-08T06:12:00;95700.25;;;7.72;100.00
4590;BME280;2307;48.448;9.216;2023-04-08T06:14:26;95693.47;;;7.58;100.00
4590;BME280;2307;48.448;9.216;2023-04-08T06:16:52;95698.56;;;7.33;100.00
4590;BME280;2307;48.448;9.216;2023-04-08T06:19:22;95698.03;;;7.11;100.00
4590;BME280;2307;48.448;9.216;2023-04-08T06:21:49;95698.59;;;7.26;100.00
4590;BME280;2307;48.448;9.216;2023-04-08T06:24:15;95699.75;;;7.43;100.00
4590;BME280;2307;48.448;9.216;2023-04-08T06:26:42;95702.50;;;7.62;100.00
4590;BME280;2307;48.448;9.216;2023-04-08T06:29:08;95702.47;;;7.75;100.00
4590;BME280;2307;48.448;9.216;2023-04-08T06:31:35;95696.56;;;7.86;100.00
4590;BME280;2307;48.448;9.216;2023-04-08T06:34:01;95703.47;;;7.74;100.00
4590;BME280;2307;48.448;9.216;2023-04-08T06:36:29;95709.88;;;7.91;100.00
4590;BME280;2307;48.448;9.216;2023-04-08T06:38:55;95704.16;;;7.56;100.00
4590;BME280;2307;48.448;9.216;2023-04-08T06:41:22;95709.81;;;7.60;100.00
4590;BME280;2307;48.448;9.216;2023-04-08T06:43:48;95707.56;;;7.70;100.00
4590;BME280;2307;48.448;9.216;2023-04-08T06:46:14;95718.19;;;7.88;100.00
4590;BME280;2307;48.448;9.216;2023-04-08T06:48:41;95715.09;;;7.97;100.00
4590;BME280;2307;48.448;9.216;2023-04-08T06:51:07;95709.66;;;7.99;100.00
4590;BME280;2307;48.448;9.216;2023-04-08T06:53:35;95712.03;;;8.00;100.00
4590;BME280;2307;48.448;9.216;2023-04-08T06:56:01;95716.97;;;7.84;100.00
4590;BME280;2307;48.448;9.216;2023-04-08T06:58:28;95711.91;;;7.89;100.00
4590;BME280;2307;48.448;9.216;2023-04-08T07:00:54;95714.69;;;8.00;100.00
4590;BME280;2307;48.448;9.216;2023-04-08T07:03:21;95715.06;;;8.04;100.00
4590;BME280;2307;48.448;9.216;2023-04-08T07:05:48;95713.41;;;7.72;100.00
4590;BME280;2307;48.448;9.216;2023-04-08T07:08:14;95714.78;;;7.81;100.00
4590;BME280;2307;48.448;9.216;2023-04-08T07:10:42;95714.66;;;8.07;100.00
4590;BME280;2307;48.448;9.216;2023-04-08T07:13:08;95714.78;;;8.19;100.00
4590;BME280;2307;48.448;9.216;2023-04-08T07:15:35;95720.28;;;8.11;100.00
4590;BME280;2307;48.448;9.216;2023-04-08T07:18:01;95724.84;;;7.90;100.00
4590;BME280;2307;48.448;9.216;2023-04-08T07:20:28;95724.81;;;7.97;100.00
4590;BME280;2307;48.448;9.216;2023-04-08T07:22:55;95723.59;;;7.93;100.00
4590;BME280;2307;48.448;9.216;2023-04-08T07:25:21;95729.66;;;8.00;100.00
4590;BME280;2307;48.448;9.216;2023-04-08T07:27:49;95726.50;;;7.85;100.00
4590;BME280;2307;48.448;9.216;2023-04-08T07:30:16;95741.13;;;7.68;100.00
4590;BME280;2307;48.448;9.216;2023-04-08T07:32:50;95747.19;;;7.68;100.00
4590;BME280;2307;48.448;9.216;2023-04-08T07:35:19;95743.16;;;7.59;100.00
4590;BME280;2307;48.448;9.216;2023-04-08T07:37:48;95750.44;;;7.64;100.00
4590;BME280;2307;48.448;9.216;2023-04-08T07:40:14;95748.59;;;7.71;100.00
4590;BME280;2307;48.448;9.216;2023-04-08T07:45:16;95751.31;;;7.44;100.00
4590;BME280;2307;48.448;9.216;2023-04-08T07:47:42;95753.75;;;7.26;100.00
4590;BME280;2307;48.448;9.216;2023-04-08T07:50:09;95752.97;;;7.26;100.00
4590;BME280;2307;48.448;9.216;2023-04-08T07:52:36;95756.38;;;7.26;100.00
4590;BME280;2307;48.448;9.216;2023-04-08T07:55:02;95752.34;;;7.30;100.00
4590;BME280;2307;48.448;9.216;2023-04-08T07:57:30;95753.75;;;7.33;100.00
4590;BME280;2307;48.448;9.216;2023-04-08T07:59:56;95751.38;;;7.18;100.00
4590;BME280;2307;48.448;9.216;2023-04-08T08:02:24;95756.44;;;7.20;100.00
4590;BME280;2307;48.448;9.216;2023-04-08T08:04:50;95768.53;;;7.08;100.00
4590;BME280;2307;48.448;9.216;2023-04-08T08:07:16;95769.94;;;7.17;100.00
4590;BME280;2307;48.448;9.216;2023-04-08T08:09:43;95773.59;;;7.09;100.00
4590;BME280;2307;48.448;9.216;2023-04-08T08:12:09;95776.81;;;7.18;100.00
4590;BME280;2307;48.448;9.216;2023-04-08T08:14:36;95773.19;;;7.25;100.00
4590;BME280;2307;48.448;9.216;2023-04-08T08:17:03;95769.91;;;7.36;100.00
4590;BME280;2307;48.448;9.216;2023-04-08T08:19:31;95775.56;;;7.33;100.00
4590;BME280;2307;48.448;9.216;2023-04-08T08:21:57;95776.00;;;7.30;100.00
4590;BME280;2307;48.448;9.216;2023-04-08T08:24:23;95774.53;;;7.54;100.00
4590;BME280;2307;48.448;9.216;2023-04-08T08:26:50;95778.31;;;7.71;100.00
4590;BME280;2307;48.448;9.216;2023-04-08T08:29:17;95772.06;;;7.72;100.00
4590;BME280;2307;48.448;9.216;2023-04-08T08:31:43;95775.66;;;7.78;100.00
4590;BME280;2307;48.448;9.216;2023-04-08T08:34:09;95777.56;;;7.64;100.00
4590;BME280;2307;48.448;9.216;2023-04-08T08:36:37;95781.16;;;7.70;100.00
4590;BME280;2307;48.448;9.216;2023-04-08T08:39:03;95779.53;;;7.69;100.00
4590;BME280;2307;48.448;9.216;2023-04-08T08:41:32;95778.03;;;7.99;100.00
4590;BME280;2307;48.448;9.216;2023-04-08T08:43:58;95776.47;;;8.29;100.00
4590;BME280;2307;48.448;9.216;2023-04-08T08:46:25;95790.16;;;8.44;100.00
4590;BME280;2307;48.448;9.216;2023-04-08T08:48:51;95786.31;;;8.40;100.00
4590;BME280;2307;48.448;9.216;2023-04-08T08:51:18;95782.59;;;8.54;100.00
4590;BME280;2307;48.448;9.216;2023-04-08T08:53:46;95784.81;;;8.58;100.00
4590;BME280;2307;48.448;9.216;2023-04-08T08:56:12;95790.00;;;8.71;100.00
4590;BME280;2307;48.448;9.216;2023-04-08T08:58:39;95794.38;;;8.83;100.00
4590;BME280;2307;48.448;9.216;2023-04-08T09:03:55;95800.91;;;8.74;100.00
4590;BME280;2307;48.448;9.216;2023-04-08T09:06:31;95791.44;;;8.67;100.00
4590;BME280;2307;48.448;9.216;2023-04-08T09:08:59;95801.88;;;8.80;100.00
4590;BME280;2307;48.448;9.216;2023-04-08T09:11:26;95798.00;;;8.82;100.00
4590;BME280;2307;48.448;9.216;2023-04-08T09:13:53;95802.88;;;8.79;100.00
4590;BME280;2307;48.448;9.216;2023-04-08T09:16:20;95800.41;;;8.90;100.00
4590;BME280;2307;48.448;9.216;2023-04-08T09:18:47;95810.06;;;8.96;100.00
4590;BME280;2307;48.448;9.216;2023-04-08T09:21:14;95806.75;;;8.76;100.00
4590;BME280;2307;48.448;9.216;2023-04-08T09:23:42;95809.34;;;8.83;100.00
4590;BME280;2307;48.448;9.216;2023-04-08T09:26:10;95810.94;;;8.90;100.00
4590;BME280;2307;48.448;9.216;2023-04-08T09:28:37;95806.53;;;9.09;100.00
4590;BME280;2307;48.448;9.216;2023-04-08T09:33:55;95810.66;;;8.98;100.00
4590;BME280;2307;48.448;9.216;2023-04-08T09:36:21;95799.47;;;8.78;100.00
4590;BME280;2307;48.448;9.216;2023-04-08T09:38:48;95809.97;;;9.10;100.00
4590;BME280;2307;48.448;9.216;2023-04-08T09:41:16;95809.69;;;8.93;100.00
4590;BME280;2307;48.448;9.216;2023-04-08T09:43:46;95811.06;;;8.71;100.00
4590;BME280;2307;48.448;9.216;2023-04-08T09:46:14;95807.31;;;8.53;100.00
4590;BME280;2307;48.448;9.216;2023-04-08T09:48:45;95806.31;;;8.54;100.00
4590;BME280;2307;48.448;9.216;2023-04-08T09:51:15;95809.00;;;8.73;100.00
4590;BME280;2307;48.448;9.216;2023-04-08T09:53:44;95811.50;;;9.17;100.00
4590;BME280;2307;48.448;9.216;2023-04-08T09:56:11;95811.38;;;9.55;100.00
4590;BME280;2307;48.448;9.216;2023-04-08T09:58:41;95810.75;;;9.78;100.00
4590;BME280;2307;48.448;9.216;2023-04-08T10:01:12;95814.47;;;10.06;100.00
4590;BME280;2307;48.448;9.216;2023-04-08T10:03:39;95817.56;;;10.22;100.00
4590;BME280;2307;48.448;9.216;2023-04-08T10:06:10;95810.22;;;10.42;100.00
4590;BME280;2307;48.448;9.216;2023-04-08T10:08:37;95812.38;;;10.33;100.00
4590;BME280;2307;48.448;9.216;2023-04-08T10:11:04;95808.22;;;10.37;100.00
4590;BME280;2307;48.448;9.216;2023-04-08T10:13:30;95816.28;;;10.72;100.00
4590;BME280;2307;48.448;9.216;2023-04-08T10:18:47;95811.34;;;11.05;100.00
4590;BME280;2307;48.448;9.216;2023-04-08T10:21:36;95819.94;;;11.01;100.00
4590;BME280;2307;48.448;9.216;2023-04-08T10:24:05;95817.78;;;11.09;97.58
4590;BME280;2307;48.448;9.216;2023-04-08T10:26:32;95816.06;;;11.15;100.00
4590;BME280;2307;48.448;9.216;2023-04-08T10:31:45;95814.03;;;11.40;85.31
4590;BME280;2307;48.448;9.216;2023-04-08T10:34:15;95815.75;;;11.58;83.95
4590;BME280;2307;48.448;9.216;2023-04-08T10:36:42;95813.66;;;11.48;86.48
4590;BME280;2307;48.448;9.216;2023-04-08T10:39:09;95809.09;;;11.79;78.70
4590;BME280;2307;48.448;9.216;2023-04-08T10:41:40;95806.88;;;11.52;82.93
4590;BME280;2307;48.448;9.216;2023-04-08T10:44:13;95809.31;;;11.89;74.42
4590;BME280;2307;48.448;9.216;2023-04-08T10:46:40;95812.22;;;11.76;79.15
4590;BME280;2307;48.448;9.216;2023-04-08T10:49:07;95815.53;;;11.59;79.86
4590;BME280;2307;48.448;9.216;2023-04-08T10:51:35;95813.69;;;11.83;81.34
4590;BME280;2307;48.448;9.216;2023-04-08T10:54:04;95815.41;;;11.43;68.95
4590;BME280;2307;48.448;9.216;2023-04-08T10:56:31;95809.19;;;11.84;65.99
4590;BME280;2307;48.448;9.216;2023-04-08T10:58:58;95811.16;;;11.77;66.65
4590;BME280;2307;48.448;9.216;2023-04-08T11:01:25;95805.41;;;11.56;70.85
4590;BME280;2307;48.448;9.216;2023-04-08T11:03:51;95813.56;;;11.43;75.91
4590;BME280;2307;48.448;9.216;2023-04-08T11:06:18;95811.41;;;11.75;74.37
4590;BME280;2307;48.448;9.216;2023-04-08T11:08:46;95809.66;;;11.81;73.29
4590;BME280;2307;48.448;9.216;2023-04-08T11:11:12;95806.53;;;11.49;70.27
4590;BME280;2307;48.448;9.216;2023-04-08T11:13:40;95808.28;;;11.66;72.59
4590;BME280;2307;48.448;9.216;2023-04-08T11:16:07;95812.31;;;11.57;69.72
4590;BME280;2307;48.448;9.216;2023-04-08T11:18:34;95805.50;;;11.50;69.47
4590;BME280;2307;48.448;9.216;2023-04-08T11:21:00;95805.16;;;11.46;71.73
4590;BME280;2307;48.448;9.216;2023-04-08T11:23:27;95809.41;;;11.12;78.21
4590;BME280;2307;48.448;9.216;2023-04-08T11:25:55;95805.50;;;11.27;79.44
4590;BME280;2307;48.448;9.216;2023-04-08T11:28:22;95795.59;;;11.10;74.45
4590;BME280;2307;48.448;9.216;2023-04-08T11:30:50;95801.13;;;11.32;69.96
4590;BME280;2307;48.448;9.216;2023-04-08T11:33:17;95800.91;;;11.22;73.55
4590;BME280;2307;48.448;9.216;2023-04-08T11:35:43;95800.91;;;11.22;70.77
4590;BME280;2307;48.448;9.216;2023-04-08T11:38:10;95797.34;;;11.28;71.30
4590;BME280;2307;48.448;9.216;2023-04-08T11:40:36;95802.59;;;11.16;75.23
4590;BME280;2307;48.448;9.216;2023-04-08T11:43:09;95795.00;;;10.55;83.66
4590;BME280;2307;48.448;9.216;2023-04-08T11:45:36;95795.44;;;10.04;88.53
4590;BME280;2307;48.448;9.216;2023-04-08T11:48:07;95794.84;;;9.84;94.95
4590;BME280;2307;48.448;9.216;2023-04-08T11:50:33;95801.06;;;10.08;94.12
4590;BME280;2307;48.448;9.216;2023-04-08T11:53:00;95799.09;;;10.22;90.00
4590;BME280;2307;48.448;9.216;2023-04-08T11:55:26;95799.22;;;10.08;91.05
4590;BME280;2307;48.448;9.216;2023-04-08T11:57:54;95795.34;;;9.75;90.06
4590;BME280;2307;48.448;9.216;2023-04-08T12:00:22;95804.59;;;9.66;92.61
4590;BME280;2307;48.448;9.216;2023-04-08T12:02:49;95805.63;;;9.83;98.57
4590;BME280;2307;48.448;9.216;2023-04-08T12:05:16;95797.25;;;10.04;88.52
4590;BME280;2307;48.448;9.216;2023-04-08T12:07:43;95803.72;;;10.26;89.46
4590;BME280;2307;48.448;9.216;2023-04-08T12:10:09;95805.31;;;10.09;89.49
4590;BME280;2307;48.448;9.216;2023-04-08T12:12:36;95806.06;;;10.16;84.88
4590;BME280;2307;48.448;9.216;2023-04-08T12:15:03;95809.13;;;10.13;84.06
4590;BME280;2307;48.448;9.216;2023-04-08T12:17:30;95807.50;;;10.12;87.10
4590;BME280;2307;48.448;9.216;2023-04-08T12:19:57;95800.91;;;10.21;82.89
4590;BME280;2307;48.448;9.216;2023-04-08T12:22:23;95805.38;;;10.39;84.09
4590;BME280;2307;48.448;9.216;2023-04-08T12:24:51;95806.03;;;10.52;79.18
4590;BME280;2307;48.448;9.216;2023-04-08T12:27:17;95806.72;;;10.59;74.42
4590;BME280;2307;48.448;9.216;2023-04-08T12:29:43;95811.63;;;10.26;76.77
4590;BME280;2307;48.448;9.216;2023-04-08T12:32:10;95801.53;;;10.23;74.38
4590;BME280;2307;48.448;9.216;2023-04-08T12:34:38;95798.56;;;10.31;71.08
4590;BME280;2307;48.448;9.216;2023-04-08T12:37:05;95804.66;;;10.32;69.83
4590;BME280;2307;48.448;9.216;2023-04-08T12:39:31;95809.56;;;10.28;70.24
4590;BME280;2307;48.448;9.216;2023-04-08T12:41:58;95808.38;;;10.42;70.25
4590;BME280;2307;48.448;9.216;2023-04-08T12:44:24;95807.81;;;10.22;72.24
4590;BME280;2307;48.448;9.216;2023-04-08T12:46:51;95806.94;;;10.10;72.78
4590;BME280;2307;48.448;9.216;2023-04-08T12:49:17;95799.38;;;10.32;74.29
4590;BME280;2307;48.448;9.216;2023-04-08T12:51:45;95796.06;;;10.36;75.75
4590;BME280;2307;48.448;9.216;2023-04-08T12:54:11;95802.94;;;10.55;73.22
4590;BME280;2307;48.448;9.216;2023-04-08T12:56:37;95807.03;;;10.51;74.74
4590;BME280;2307;48.448;9.216;2023-04-08T12:59:04;95796.78;;;10.43;72.71
4590;BME280;2307;48.448;9.216;2023-04-08T13:01:30;95802.25;;;10.60;73.12
4590;BME280;2307;48.448;9.216;2023-04-08T13:03:57;95805.38;;;10.69;74.77
4590;BME280;2307;48.448;9.216;2023-04-08T13:06:24;95810.69;;;10.69;76.88
4590;BME280;2307;48.448;9.216;2023-04-08T13:08:52;95803.31;;;10.71;76.69
4590;BME280;2307;48.448;9.216;2023-04-08T13:11:18;95807.47;;;10.78;72.78
4590;BME280;2307;48.448;9.216;2023-04-08T13:13:45;95798.84;;;10.41;74.22
4590;BME280;2307;48.448;9.216;2023-04-08T13:16:11;95806.28;;;10.33;73.72
4590;BME280;2307;48.448;9.216;2023-04-08T13:18:39;95797.94;;;10.47;73.70
4590;BME280;2307;48.448;9.216;2023-04-08T13:21:06;95795.91;;;10.49;76.58
4590;BME280;2307;48.448;9.216;2023-04-08T13:23:32;95799.41;;;10.43;76.57
4590;BME280;2307;48.448;9.216;2023-04-08T13:26:00;95795.09;;;10.49;75.09
4590;BME280;2307;48.448;9.216;2023-04-08T13:28:27;95808.34;;;10.60;75.12
4590;BME280;2307;48.448;9.216;2023-04-08T13:30:53;95803.34;;;10.23;77.22
4590;BME280;2307;48.448;9.216;2023-04-08T13:33:20;95797.50;;;10.21;79.65
4590;BME280;2307;48.448;9.216;2023-04-08T13:35:47;95796.31;;;10.17;78.03